Time;durP1;ratioP1;P1;durP2;ratioP2;P2;SDS_P1;SDS_P2;PMS_P1;PMS_P2;Temp;Humidity;BMP_temperature;BMP_pressure;BME280_temperature;BME280_humidity;BME280_pressure;Samples;Min_cycle;Max_cycle;Signal;HPM_P1;HPM_P2
2022/10/14 00:01:14;;;;;;;76.50;30.63;;;;;;;11.34;100.00;92755.03;5034074;28;20044;-78
2022/10/14 00:03:40;;;;;;;65.70;28.20;;;;;;;11.33;100.00;92763.97;5032089;28;20044;-78
2022/10/14 00:06:08;;;;;;;64.88;28.95;;;;;;;11.29;100.00;92749.84;5033704;28;20471;-78
2022/10/14 00:08:34;;;;;;;64.20;27.58;;;;;;;11.22;100.00;92752.81;5033690;28;20041;-78
2022/10/14 00:11:09;;;;;;;62.30;27.13;;;;;;;11.18;100.00;92751.06;5033905;28;20403;-77
2022/10/14 00:13:35;;;;;;;56.53;26.25;;;;;;;11.15;100.00;92754.25;5034579;28;20531;-77
2022/10/14 00:16:02;;;;;;;64.03;25.98;;;;;;;11.11;100.00;92755.88;5033807;28;20061;-78
2022/10/14 00:18:28;;;;;;;57.05;26.17;;;;;;;11.06;100.00;92756.72;5033730;28;20037;-77
2022/10/14 00:20:59;;;;;;;61.78;25.83;;;;;;;11.00;100.00;92768.31;5032896;28;20435;-77
2022/10/14 00:23:26;;;;;;;56.07;24.63;;;;;;;10.99;100.00;92764.94;5033435;28;20036;-78
2022/10/14 00:25:52;;;;;;;56.58;23.88;;;;;;;10.95;100.00;92769.16;5033504;28;20417;-78
2022/10/14 00:28:17;;;;;;;61.88;24.80;;;;;;;10.91;100.00;92762.16;5033975;28;20065;-78
2022/10/14 00:31:00;;;;;;;51.15;24.48;;;;;;;10.87;100.00;92766.38;5032214;28;20088;-78
2022/10/14 00:33:26;;;;;;;;;;;;;;;10.83;100.00;92779.28;5032877;28;20065;-78
2022/10/14 00:36:05;;;;;;;51.22;22.45;;;;;;;10.77;100.00;92772.53;5033754;28;19909;-78
2022/10/14 00:38:34;;;;;;;44.08;21.20;;;;;;;10.75;100.00;92766.78;5033383;28;20521;-78
2022/10/14 00:41:00;;;;;;;48.03;21.33;;;;;;;10.72;100.00;92764.75;5033099;28;20494;-78
2022/10/14 00:43:27;;;;;;;48.75;22.45;;;;;;;10.67;100.00;92765.53;5032094;28;20499;-78
2022/10/14 00:45:53;;;;;;;60.10;24.40;;;;;;;10.66;100.00;92764.00;5032158;28;20026;-77
2022/10/14 00:48:22;;;;;;;46.33;23.40;;;;;;;10.62;100.00;92763.75;5031775;28;20037;-78
2022/10/14 00:50:53;;;;;;;52.42;21.50;;;;;;;10.54;100.00;92753.94;5033196;28;20053;-78
2022/10/14 00:53:19;;;;;;;52.42;23.05;;;;;;;10.56;100.00;92761.47;5033425;28;20037;-78
2022/10/14 00:55:46;;;;;;;41.08;19.92;;;;;;;10.53;100.00;92759.44;5031967;28;20021;-78
2022/10/14 00:58:12;;;;;;;47.85;20.05;;;;;;;10.50;100.00;92755.53;5031333;28;20068;-78
2022/10/14 01:00:39;;;;;;;39.80;19.65;;;;;;;10.46;100.00;92757.16;5031868;28;20463;-77
2022/10/14 01:03:09;;;;;;;46.28;19.52;;;;;;;10.43;100.00;92757.72;5033448;28;20029;-77
2022/10/14 01:05:40;;;;;;;47.13;21.15;;;;;;;10.36;100.00;92754.66;5032854;28;20433;-78
2022/10/14 01:08:19;;;;;;;50.05;22.27;;;;;;;10.39;100.00;92761.94;5033137;28;20491;-77
2022/10/14 01:11:02;;;;;;;55.08;24.27;;;;;;;10.39;100.00;92760.09;5032973;28;20030;-77
2022/10/14 01:13:41;;;;;;;58.20;24.75;;;;;;;10.37;100.00;92750.97;5033625;28;20048;-77
2022/10/14 01:16:21;;;;;;;47.40;23.15;;;;;;;10.36;100.00;92747.56;5035356;28;20049;-78
2022/10/14 01:19:04;;;;;;;62.92;26.08;;;;;;;10.34;100.00;92744.44;5035268;28;20565;-78
2022/10/14 01:21:41;;;;;;;;;;;;;;;10.37;100.00;92740.50;5037090;28;20114;-77
2022/10/14 01:24:28;;;;;;;54.97;24.35;;;;;;;10.34;100.00;92746.28;5036330;28;20409;-78
2022/10/14 01:27:22;;;;;;;44.92;21.38;;;;;;;10.31;100.00;92752.06;5034352;28;20030;-78
2022/10/14 01:29:58;;;;;;;49.25;21.00;;;;;;;10.26;100.00;92745.03;5035896;28;20033;-78
2022/10/14 01:32:30;;;;;;;45.08;20.95;;;;;;;10.25;100.00;92745.31;5035059;28;20453;-78
2022/10/14 01:35:03;;;;;;;47.72;21.88;;;;;;;10.25;100.00;92750.56;5034592;28;20037;-78
2022/10/14 01:37:33;;;;;;;55.23;22.63;;;;;;;10.24;100.00;92751.59;5035926;28;20069;-78
2022/10/14 01:40:04;;;;;;;45.13;21.95;;;;;;;10.25;100.00;92742.69;5034730;28;20399;-78
2022/10/14 01:42:33;;;;;;;48.83;22.02;;;;;;;10.21;100.00;92743.22;5034337;28;20460;-78
2022/10/14 01:45:10;;;;;;;50.42;22.38;;;;;;;10.19;100.00;92740.13;5018337;28;20524;-78
2022/10/14 01:47:38;;;;;;;50.67;22.65;;;;;;;10.17;100.00;92739.59;5035027;28;20048;-78
2022/10/14 01:50:11;;;;;;;48.88;22.90;;;;;;;10.13;100.00;92741.25;5034765;28;20034;-77
2022/10/14 01:52:45;;;;;;;49.60;22.13;;;;;;;10.12;100.00;92737.03;5034750;28;20046;-78
2022/10/14 01:55:15;;;;;;;48.80;21.75;;;;;;;10.08;100.00;92722.19;5034464;28;20042;-78
2022/10/14 01:57:43;;;;;;;50.88;22.42;;;;;;;10.07;100.00;92734.50;5034499;28;20126;-78
2022/10/14 02:00:10;;;;;;;51.22;23.67;;;;;;;10.09;100.00;92729.00;5034250;28;20172;-78
2022/10/14 02:02:41;;;;;;;51.97;23.58;;;;;;;10.07;100.00;92721.41;5035013;28;20037;-78
2022/10/14 02:05:16;;;;;;;57.80;25.58;;;;;;;10.06;100.00;92713.84;5034111;28;20046;-78
2022/10/14 02:07:47;;;;;;;59.17;27.17;;;;;;;10.05;100.00;92720.91;5034465;28;20682;-78
2022/10/14 02:10:23;;;;;;;66.63;27.73;;;;;;;10.04;100.00;92710.72;5034511;28;20037;-78
2022/10/14 02:13:24;;;;;;;70.00;29.40;;;;;;;10.05;100.00;92722.75;5035786;28;20060;-77
2022/10/14 02:16:11;;;;;;;71.65;31.02;;;;;;;10.04;100.00;92716.72;5017987;28;20065;-78
2022/10/14 02:18:46;;;;;;;92.55;33.08;;;;;;;10.06;100.00;92709.38;5032985;28;20036;-78
2022/10/14 02:21:17;;;;;;;93.53;33.40;;;;;;;10.08;100.00;92707.25;5036234;28;20572;-78
2022/10/14 02:24:12;;;;;;;78.95;31.73;;;;;;;10.08;100.00;92701.25;5034701;28;20502;-78
2022/10/14 02:26:40;;;;;;;83.78;32.75;;;;;;;10.07;100.00;92703.09;5029935;28;20153;-77
2022/10/14 02:29:06;;;;;;;85.05;34.67;;;;;;;10.08;100.00;92696.81;5015159;28;20038;-78
2022/10/14 02:31:34;;;;;;;91.88;34.42;;;;;;;10.09;100.00;92700.22;5014704;28;20137;-77
2022/10/14 02:34:04;;;;;;;89.05;33.30;;;;;;;10.10;100.00;92697.31;5015875;28;20026;-78
2022/10/14 02:36:32;;;;;;;80.93;33.33;;;;;;;10.10;100.00;92699.91;5014794;28;20038;-78
2022/10/14 02:38:59;;;;;;;79.97;32.25;;;;;;;10.06;100.00;92698.91;5023955;28;20376;-78
2022/10/14 02:41:32;;;;;;;76.93;29.70;;;;;;;10.05;100.00;92694.75;5035214;28;20044;-78
2022/10/14 02:43:58;;;;;;;71.43;29.10;;;;;;;10.01;100.00;92691.13;5034140;28;20044;-78
2022/10/14 02:46:24;;;;;;;68.13;31.42;;;;;;;10.00;100.00;92690.34;5033780;28;20487;-78
2022/10/14 02:48:50;;;;;;;86.85;32.17;;;;;;;10.01;100.00;92689.28;5034017;28;20475;-78
2022/10/14 02:51:16;;;;;;;85.32;34.55;;;;;;;10.03;100.00;92694.25;5034625;28;20053;-78
2022/10/14 02:53:42;;;;;;;85.68;34.38;;;;;;;10.03;100.00;92696.09;5034339;28;20369;-78
2022/10/14 02:56:16;;;;;;;97.82;37.20;;;;;;;10.03;100.00;92694.25;5034054;28;20051;-78
2022/10/14 02:58:41;;;;;;;100.68;36.70;;;;;;;10.03;100.00;92694.25;5033827;28;20037;-78
2022/10/14 03:01:07;;;;;;;96.90;36.97;;;;;;;10.05;100.00;92697.38;5035647;28;20067;-78
2022/10/14 03:03:34;;;;;;;97.85;37.08;;;;;;;10.05;100.00;92702.59;5033775;28;20039;-78
2022/10/14 03:06:00;;;;;;;112.50;39.08;;;;;;;10.03;100.00;92694.25;5033635;28;20041;-78
2022/10/14 03:08:27;;;;;;;111.72;40.00;;;;;;;10.01;100.00;92699.75;5033815;28;20091;-78
2022/10/14 03:10:55;;;;;;;113.10;39.17;;;;;;;9.99;100.00;92695.84;5033811;28;20032;-77
2022/10/14 03:13:21;;;;;;;117.50;41.40;;;;;;;9.98;100.00;92699.53;5033685;28;20044;-78
2022/10/14 03:15:49;;;;;;;107.88;40.35;;;;;;;9.94;100.00;92694.06;5032756;28;20033;-77
2022/10/14 03:18:16;;;;;;;108.20;42.42;;;;;;;9.95;100.00;92694.84;5017142;28;20036;-77
2022/10/14 03:20:44;;;;;;;105.07;39.50;;;;;;;9.94;100.00;92698.53;5033633;28;20040;-78
2022/10/14 03:23:11;;;;;;;99.57;38.45;;;;;;;9.89;100.00;92690.72;5032984;28;20041;-78
2022/10/14 03:25:37;;;;;;;94.50;35.50;;;;;;;9.89;100.00;92685.50;5033257;28;20076;-78
2022/10/14 03:28:08;;;;;;;88.15;35.38;;;;;;;9.87;100.00;92685.78;5034055;28;20037;-77
2022/10/14 03:30:49;;;;;;;85.15;34.42;;;;;;;9.87;100.00;92683.16;5033471;28;20154;-78
2022/10/14 03:33:27;;;;;;;86.78;35.28;;;;;;;9.89;100.00;92682.88;5032688;28;20037;-78
2022/10/14 03:36:00;;;;;;;76.00;31.15;;;;;;;9.87;100.00;92685.78;5032380;28;20064;-78
2022/10/14 03:38:38;;;;;;;71.40;28.15;;;;;;;9.87;100.00;92680.53;5017757;28;20054;-78
2022/10/14 03:41:06;;;;;;;71.63;28.17;;;;;;;9.87;100.00;92685.78;5033461;28;20672;-78
2022/10/14 03:43:32;;;;;;;74.40;28.55;;;;;;;9.85;100.00;92679.25;5033256;28;20128;-78
2022/10/14 03:45:58;;;;;;;67.25;29.17;;;;;;;9.84;100.00;92688.94;5032882;28;20113;-78
2022/10/14 03:48:24;;;;;;;72.25;28.70;;;;;;;9.81;100.00;92681.63;5032783;28;20037;-78
2022/10/14 03:50:53;;;;;;;71.97;28.58;;;;;;;9.79;100.00;92686.34;5033117;28;20064;-78
2022/10/14 03:53:19;;;;;;;63.63;27.60;;;;;;;9.77;100.00;92683.25;5032636;28;20547;-78
2022/10/14 03:55:45;;;;;;;63.05;27.92;;;;;;;9.75;100.00;92675.69;5033207;28;20108;-78
2022/10/14 03:58:11;;;;;;;62.50;25.88;;;;;;;9.75;100.00;92688.00;5033257;28;20042;-78
2022/10/14 04:00:43;;;;;;;56.83;24.35;;;;;;;9.74;100.00;92671.50;5032641;28;20049;-78
2022/10/14 04:03:23;;;;;;;54.60;24.60;;;;;;;9.72;100.00;92668.38;5033179;28;20128;-78
2022/10/14 04:05:49;;;;;;;62.47;26.63;;;;;;;9.71;100.00;92672.06;5032610;28;20619;-78
2022/10/14 04:08:19;;;;;;;67.97;27.17;;;;;;;9.71;100.00;92673.91;5032490;28;20034;-77
2022/10/14 04:10:55;;;;;;;61.42;24.83;;;;;;;9.69;100.00;92668.16;5033406;28;20092;-78
2022/10/14 04:13:21;;;;;;;56.15;23.30;;;;;;;9.67;100.00;92665.81;5032800;28;20135;-78
2022/10/14 04:15:47;;;;;;;58.22;24.48;;;;;;;9.64;100.00;92660.38;5034434;28;20064;-78
2022/10/14 04:18:19;;;;;;;55.33;24.95;;;;;;;9.62;100.00;92665.88;5032991;28;20128;-77
2022/10/14 04:20:46;;;;;;;52.28;23.55;;;;;;;9.59;100.00;92666.41;5034249;28;20046;-78
2022/10/14 04:23:14;;;;;;;52.55;22.88;;;;;;;9.58;100.00;92664.88;5033038;28;20124;-77
2022/10/14 04:25:41;;;;;;;53.25;22.30;;;;;;;9.54;100.00;92669.84;5016905;28;20042;-78
2022/10/14 04:28:07;;;;;;;50.92;22.42;;;;;;;9.52;100.00;92668.56;5033109;28;20068;-77
2022/10/14 04:30:56;;;;;;;52.28;22.25;;;;;;;9.49;100.00;92669.13;5032570;28;20065;-78
2022/10/14 04:33:27;;;;;;;45.88;21.92;;;;;;;9.49;100.00;92677.75;5032072;28;20639;-78
2022/10/14 04:35:58;;;;;;;52.90;22.85;;;;;;;9.47;100.00;92681.69;5032214;28;20435;-78
2022/10/14 04:38:30;;;;;;;54.60;22.85;;;;;;;9.45;100.00;92675.94;5033352;28;20542;-78
2022/10/14 04:41:01;;;;;;;55.22;22.05;;;;;;;9.46;100.00;92680.13;5031683;28;20056;-78
2022/10/14 04:43:29;;;;;;;45.90;21.52;;;;;;;9.44;100.00;92671.78;5032324;28;20403;-78
2022/10/14 04:45:59;;;;;;;41.92;20.85;;;;;;;9.41;100.00;92678.31;5033014;28;20057;-78
2022/10/14 04:48:26;;;;;;;48.70;20.73;;;;;;;9.35;100.00;92671.59;5018718;28;20591;-79
2022/10/14 04:50:53;;;;;;;41.78;20.63;;;;;;;9.37;100.00;92678.09;5018503;28;20040;-79
2022/10/14 04:53:42;;;;;;;42.42;19.70;;;;;;;9.36;100.00;92671.28;5020928;28;20073;-80
2022/10/14 04:56:33;;;;;;;44.83;20.48;;;;;;;9.42;100.00;92673.88;5011312;28;20034;-79
2022/10/14 04:59:01;;;;;;;50.80;21.52;;;;;;;9.43;100.00;92670.22;5018998;28;20037;-79
2022/10/14 05:01:50;;;;;;;42.83;20.10;;;;;;;9.41;100.00;92669.69;5000218;28;20038;-78
2022/10/14 05:04:15;;;;;;;41.22;18.88;;;;;;;9.40;100.00;92673.38;5000939;28;20042;-79
2022/10/14 05:06:43;;;;;;;47.70;21.08;;;;;;;9.40;100.00;92666.31;5014903;28;20135;-80
2022/10/14 05:09:12;;;;;;;47.63;20.73;;;;;;;9.36;100.00;92658.22;5021884;28;20037;-81
2022/10/14 05:11:39;;;;;;;48.35;21.08;;;;;;;9.35;100.00;92654.06;5004418;28;20444;-80
2022/10/14 05:14:05;;;;;;;47.17;20.50;;;;;;;9.30;100.00;92654.13;5020147;28;20057;-79
2022/10/14 05:19:55;;;;;;;49.33;21.60;;;;;;;9.24;100.00;92651.81;5021541;28;20041;-79
2022/10/14 05:22:25;;;;;;;44.83;20.83;;;;;;;9.23;100.00;92660.69;5020918;28;20385;-79
2022/10/14 05:24:51;;;;;;;49.42;20.80;;;;;;;9.18;100.00;92651.06;5021444;28;20042;-78
2022/10/14 05:27:40;;;;;;;44.20;20.30;;;;;;;9.20;100.00;92658.63;5002724;28;20038;-79
2022/10/14 05:30:07;;;;;;;45.42;19.65;;;;;;;9.21;100.00;92658.38;5017673;28;20038;-78
2022/10/14 05:32:38;;;;;;;52.05;20.88;;;;;;;9.22;100.00;92659.16;5017745;28;20133;-78
2022/10/14 05:35:05;;;;;;;54.40;23.63;;;;;;;9.27;100.00;92659.09;5017770;28;20399;-78
2022/10/14 05:37:35;;;;;;;51.17;21.95;;;;;;;9.32;100.00;92659.84;5016639;28;20053;-78
2022/10/14 05:40:02;;;;;;;47.83;22.33;;;;;;;9.37;100.00;92657.19;5017455;28;20041;-78
2022/10/14 05:42:31;;;;;;;55.35;23.77;;;;;;;9.41;100.00;92656.63;5017601;28;20110;-77
2022/10/14 05:45:00;;;;;;;50.53;23.08;;;;;;;9.43;100.00;92650.09;5017139;28;20061;-78
2022/10/14 05:47:27;;;;;;;57.10;23.40;;;;;;;9.49;100.00;92653.44;5017628;28;20415;-78
2022/10/14 05:49:58;;;;;;;60.47;23.48;;;;;;;9.54;100.00;92656.00;5001337;28;20037;-78
2022/10/14 05:52:23;;;;;;;55.50;24.10;;;;;;;9.59;100.00;92648.91;5014365;28;20108;-76
2022/10/14 05:54:49;;;;;;;53.47;24.05;;;;;;;9.65;100.00;92657.47;5013025;28;20041;-77
2022/10/14 05:57:19;;;;;;;63.03;25.30;;;;;;;9.72;100.00;92655.31;5013271;28;20077;-77
2022/10/14 05:59:44;;;;;;;59.90;25.88;;;;;;;9.79;100.00;92662.84;5012943;28;20061;-77
2022/10/14 06:02:13;;;;;;;51.25;25.05;;;;;;;9.80;100.00;92652.09;5011521;28;20048;-76
2022/10/14 06:04:41;;;;;;;58.20;23.92;;;;;;;9.83;100.00;92650.00;5012355;28;20040;-76
2022/10/14 06:07:09;;;;;;;61.58;26.25;;;;;;;9.89;100.00;92659.34;5012210;28;20069;-76
2022/10/14 06:09:38;;;;;;;53.55;24.70;;;;;;;9.92;100.00;92651.72;5012298;28;20038;-76
2022/10/14 06:12:04;;;;;;;49.70;24.55;;;;;;;9.98;100.00;92660.31;5013893;28;20030;-76
2022/10/14 06:14:30;;;;;;;58.72;26.80;;;;;;;10.03;100.00;92662.09;4996502;28;20041;-76
2022/10/14 06:16:57;;;;;;;57.38;25.35;;;;;;;10.07;100.00;92657.88;5012981;28;20045;-76
2022/10/14 06:19:24;;;;;;;62.75;26.45;;;;;;;10.13;100.00;92662.75;5012494;28;20100;-76
2022/10/14 06:21:49;;;;;;;56.97;26.75;;;;;;;10.21;100.00;92663.97;5014016;28;20065;-76
2022/10/14 06:24:15;;;;;;;69.72;27.02;;;;;;;10.28;100.00;92664.41;5014067;28;20505;-77
2022/10/14 06:26:41;;;;;;;59.25;25.63;;;;;;;10.34;100.00;92660.72;5014381;28;20083;-76
2022/10/14 06:29:06;;;;;;;63.10;28.15;;;;;;;10.43;100.00;92666.13;5013151;28;20404;-77
2022/10/14 06:31:34;;;;;;;60.88;27.05;;;;;;;10.51;100.00;92665.47;5012305;28;20104;-76
2022/10/14 06:34:03;;;;;;;58.75;26.40;;;;;;;10.59;100.00;92675.34;5013856;28;20050;-76
2022/10/14 06:36:31;;;;;;;60.85;25.35;;;;;;;10.67;100.00;92678.38;4996099;28;20157;-76
2022/10/14 06:38:56;;;;;;;57.42;23.30;;;;;;;10.71;100.00;92682.00;5013375;28;20041;-76
2022/10/14 06:41:24;;;;;;;72.63;27.67;;;;;;;10.78;100.00;92682.41;5013521;28;20443;-77
2022/10/14 06:43:49;;;;;;;68.90;27.13;;;;;;;10.89;100.00;92688.31;5001299;28;20084;-77
2022/10/14 06:46:15;;;;;;;63.65;27.25;;;;;;;11.00;100.00;92694.97;4993194;28;20447;-77
2022/10/14 06:48:41;;;;;;;72.32;27.67;;;;;;;11.11;100.00;92695.63;5026040;28;20097;-76
2022/10/14 06:51:08;;;;;;;72.20;27.67;;;;;;;11.27;100.00;92699.56;4994557;28;20026;-76
2022/10/14 06:53:34;;;;;;;78.90;29.15;;;;;;;11.58;100.00;92696.50;4993072;28;20038;-77
2022/10/14 06:56:04;;;;;;;74.30;31.60;;;;;;;12.06;100.00;92699.63;4994320;28;20042;-77
2022/10/14 06:58:32;;;;;;;89.22;30.65;;;;;;;12.41;100.00;92696.66;4994803;28;20033;-78
2022/10/14 07:01:02;;;;;;;82.53;31.35;;;;;;;12.67;100.00;92702.19;4994853;28;20064;-77
2022/10/14 07:03:28;;;;;;;77.97;31.80;;;;;;;12.86;100.00;92702.84;4992669;28;20093;-77
2022/10/14 07:05:54;;;;;;;78.63;31.42;;;;;;;13.42;100.00;92703.53;4994087;28;20035;-77
2022/10/14 07:08:20;;;;;;;93.43;35.75;;;;;;;14.07;100.00;92701.44;4993751;28;20096;-77
2022/10/14 07:10:46;;;;;;;90.20;37.33;;;;;;;14.35;100.00;92702.06;5022010;28;20488;-77
2022/10/14 07:13:12;;;;;;;102.63;38.30;;;;;;;15.01;100.00;92699.47;4993201;28;20027;-77
2022/10/14 07:15:38;;;;;;;101.38;39.83;;;;;;;15.52;100.00;92700.63;4994121;28;20519;-77
2022/10/14 07:18:05;;;;;;;102.72;39.40;;;;;;;15.65;100.00;92701.53;4992903;28;20440;-77
2022/10/14 07:20:33;;;;;;;115.35;40.97;;;;;;;15.54;100.00;92711.63;4994172;28;20061;-77
2022/10/14 07:22:59;;;;;;;105.10;38.72;;;;;;;15.58;96.49;92720.47;4993254;28;20440;-77
2022/10/14 07:25:24;;;;;;;93.30;35.13;;;;;;;15.73;98.31;92723.75;4992499;28;20121;-77
2022/10/14 07:27:52;;;;;;;86.65;31.58;;;;;;;15.77;99.02;92714.13;4992876;28;20042;-77
2022/10/14 07:30:17;;;;;;;66.80;25.55;;;;;;;15.81;97.22;92717.72;5014321;28;20492;-78
2022/10/14 07:32:45;;;;;;;55.85;24.92;;;;;;;15.49;97.69;92722.34;5014063;28;20061;-77
2022/10/14 07:35:11;;;;;;;61.60;25.92;;;;;;;15.38;99.64;92715.81;5012257;28;20041;-77
2022/10/14 07:37:37;;;;;;;64.15;27.58;;;;;;;15.20;100.00;92722.94;5010817;28;20052;-77
2022/10/14 07:40:03;;;;;;;70.85;31.58;;;;;;;15.21;99.25;92724.50;5013211;28;20037;-77
2022/10/14 07:42:29;;;;;;;80.60;33.40;;;;;;;15.31;98.55;92720.75;5012404;28;20042;-77
2022/10/14 07:48:17;;;;;;;105.20;38.25;;;;;;;14.70;96.84;92729.34;5013510;28;20041;-77
2022/10/14 07:50:48;;;;;;;111.20;39.13;;;;;;;14.60;98.32;92723.56;5013090;28;20400;-77
2022/10/14 07:53:14;;;;;;;103.65;35.47;;;;;;;14.46;100.00;92726.28;5013378;28;20442;-77
2022/10/14 07:55:50;;;;;;;113.32;39.75;;;;;;;14.08;99.37;92729.34;5012971;28;20026;-77
2022/10/14 07:58:18;;;;;;;98.22;35.60;;;;;;;13.90;100.00;92734.50;5013189;28;20048;-77
2022/10/14 08:00:44;;;;;;;104.32;36.38;;;;;;;13.80;100.00;92732.09;5014140;28;20037;-77
2022/10/14 08:03:10;;;;;;;96.15;39.42;;;;;;;13.64;100.00;92733.53;5013689;28;20037;-77
2022/10/14 08:05:36;;;;;;;105.20;40.13;;;;;;;13.56;100.00;92731.63;5014102;28;20033;-77
2022/10/14 08:08:01;;;;;;;100.72;37.08;;;;;;;13.85;100.00;92739.13;5013892;28;20112;-77
2022/10/14 08:10:28;;;;;;;97.10;36.42;;;;;;;13.87;100.00;92735.09;5012729;28;20069;-77
2022/10/14 08:12:53;;;;;;;102.72;37.92;;;;;;;13.84;100.00;92729.66;5014572;28;20037;-77
2022/10/14 08:15:19;;;;;;;108.63;39.28;;;;;;;13.74;100.00;92730.69;4996793;28;20407;-77
2022/10/14 08:17:44;;;;;;;90.05;36.95;;;;;;;13.87;100.00;92726.41;5013982;28;20034;-77
2022/10/14 08:20:11;;;;;;;100.30;39.75;;;;;;;14.00;100.00;92719.53;5013082;28;20124;-77
2022/10/14 08:22:36;;;;;;;96.35;36.35;;;;;;;13.96;100.00;92724.63;5013763;28;20452;-77
2022/10/14 08:25:02;;;;;;;87.32;35.25;;;;;;;14.00;100.00;92719.53;5014060;28;20152;-77
2022/10/14 08:27:30;;;;;;;85.68;31.85;;;;;;;14.09;100.00;92723.75;5017260;28;20026;-77
2022/10/14 08:29:55;;;;;;;87.72;35.13;;;;;;;14.32;100.00;92715.81;5017940;28;20117;-77
2022/10/14 08:32:22;;;;;;;75.45;30.95;;;;;;;14.53;100.00;92731.88;5016688;28;20447;-77
2022/10/14 08:35:09;;;;;;;82.63;34.17;;;;;;;14.45;99.87;92730.75;5000462;28;20057;-77
2022/10/14 08:37:35;;;;;;;95.38;35.08;;;;;;;14.60;97.52;92713.81;5016922;28;20385;-77
2022/10/14 08:40:01;;;;;;;90.97;36.05;;;;;;;14.64;97.13;92720.03;5016961;28;20476;-77
2022/10/14 08:43:12;;;;;;;94.80;37.63;;;;;;;14.71;96.05;92725.63;5016032;28;20192;-77
2022/10/14 08:45:45;;;;;;;85.03;32.08;;;;;;;14.88;95.87;92719.63;5016508;28;21898;-77
2022/10/14 08:48:18;;;;;;;81.05;31.80;;;;;;;15.05;95.93;92726.03;5017749;28;20036;-77
2022/10/14 08:50:53;;;;;;;93.22;36.30;;;;;;;15.21;93.40;92724.50;5017338;28;20034;-77
2022/10/14 08:53:27;;;;;;;62.17;27.95;;;;;;;15.32;95.72;92731.00;5017304;28;20507;-77
2022/10/14 08:56:00;;;;;;;68.82;30.00;;;;;;;15.68;90.97;92732.59;5017580;28;20033;-77
2022/10/14 08:58:33;;;;;;;81.88;34.20;;;;;;;15.86;88.70;92729.97;5015950;28;20029;-77
2022/10/14 09:01:09;;;;;;;83.93;31.77;;;;;;;15.74;89.91;92739.28;5015934;28;20042;-77
2022/10/14 09:03:35;;;;;;;86.15;33.58;;;;;;;15.75;88.22;92748.75;5016810;28;20025;-77
2022/10/14 09:06:06;;;;;;;79.78;32.22;;;;;;;15.69;87.10;92736.00;5018118;28;20112;-78
2022/10/14 09:08:41;;;;;;;73.28;29.35;;;;;;;15.98;91.34;92741.41;5017856;28;20483;-77
2022/10/14 09:11:11;;;;;;;71.55;29.35;;;;;;;15.80;92.89;92747.81;5017558;28;20438;-78
2022/10/14 09:13:41;;;;;;;69.35;29.88;;;;;;;15.92;92.06;92744.53;5017146;28;20118;-77
2022/10/14 09:16:45;;;;;;;75.75;30.73;;;;;;;16.06;89.73;92747.03;5017248;28;20076;-78
2022/10/14 09:19:21;;;;;;;68.30;29.73;;;;;;;16.15;89.39;92735.34;5015501;28;20096;-77
2022/10/14 09:22:08;;;;;;;79.07;30.45;;;;;;;16.58;86.33;92739.72;5015848;28;20031;-78
2022/10/14 09:24:34;;;;;;;64.68;28.02;;;;;;;16.59;83.53;92733.34;5017227;28;20476;-77
2022/10/14 09:27:04;;;;;;;58.67;25.83;;;;;;;16.54;85.20;92735.41;5017470;28;20037;-78
2022/10/14 09:29:39;;;;;;;68.70;27.80;;;;;;;16.28;86.77;92730.97;5016757;28;20428;-77
2022/10/14 09:32:11;;;;;;;60.28;24.83;;;;;;;16.33;88.47;92736.09;5016240;28;20488;-77
2022/10/14 09:34:57;;;;;;;;;;;;;;;16.57;86.26;92740.03;5017330;28;20484;-77
2022/10/14 09:37:28;;;;;;;54.55;24.08;;;;;;;16.89;89.21;92740.56;5015057;28;20245;-77
2022/10/14 09:40:29;;;;;;;64.35;28.45;;;;;;;16.91;86.52;92733.09;5017450;28;20046;-77
2022/10/14 09:43:02;;;;;;;73.60;29.08;;;;;;;16.64;86.07;92729.78;5015003;28;20042;-78
2022/10/14 09:45:44;;;;;;;64.15;27.38;;;;;;;16.78;88.23;92734.84;5017084;28;20060;-78
2022/10/14 09:48:15;;;;;;;64.20;28.05;;;;;;;17.18;84.63;92726.56;5015003;28;20033;-79
2022/10/14 09:51:18;;;;;;;59.05;27.08;;;;;;;17.79;78.68;92723.50;5014233;28;20046;-76
2022/10/14 09:53:47;;;;;;;;;;;;;;;17.61;80.66;92717.56;5016283;28;20026;-76
2022/10/14 09:56:46;;;;;;;56.53;24.40;;;;;;;17.13;86.07;92730.16;5015433;28;19909;-77
2022/10/14 09:59:23;;;;;;;63.15;28.60;;;;;;;17.01;85.97;92725.56;5013599;28;20044;-77
2022/10/14 10:01:55;;;;;;;64.45;27.25;;;;;;;17.18;84.36;92730.00;5014071;28;20092;-76
2022/10/14 10:04:46;;;;;;;55.13;26.55;;;;;;;17.28;81.52;92732.25;5016211;28;20060;-77
2022/10/14 10:07:29;;;;;;;64.20;26.00;;;;;;;17.26;82.79;92720.44;5016026;28;20100;-78
2022/10/14 10:10:19;;;;;;;59.55;24.70;;;;;;;17.24;81.77;92719.97;5015652;28;20038;-79
2022/10/14 10:12:46;;;;;;;59.28;25.40;;;;;;;17.12;83.75;92728.63;5014552;28;20040;-76
2022/10/14 10:19:30;;;;;;;51.92;24.95;;;;;;;17.14;83.80;92721.16;5016307;28;20048;-78
2022/10/14 10:22:18;;;;;;;48.78;24.48;;;;;;;17.33;84.50;92717.28;5015916;28;20121;-77
2022/10/14 10:27:53;;;;;;;54.55;26.17;;;;;;;17.32;83.19;92713.09;5015322;28;20092;-77
2022/10/14 10:30:26;;;;;;;56.60;25.98;;;;;;;17.00;84.09;92715.28;5015395;28;20044;-77
2022/10/14 10:33:17;;;;;;;55.72;26.95;;;;;;;16.94;84.83;92711.31;5014424;28;20045;-76
2022/10/14 10:36:25;;;;;;;52.85;23.95;;;;;;;17.20;84.21;92709.28;5015050;28;20113;-77
2022/10/14 10:39:12;;;;;;;61.17;26.23;;;;;;;17.11;83.27;92715.72;5012451;28;20124;-76
2022/10/14 10:45:30;;;;;;;53.67;24.23;;;;;;;16.92;85.77;92700.28;5014888;28;20087;-77
2022/10/14 10:48:22;;;;;;;53.10;23.25;;;;;;;16.95;84.92;92691.69;5013734;28;20041;-75
2022/10/14 10:51:01;;;;;;;50.78;26.08;;;;;;;17.11;84.88;92690.03;5015681;28;20042;-78
2022/10/14 10:53:50;;;;;;;53.22;27.10;;;;;;;17.41;83.06;92687.34;5014852;28;20068;-78
2022/10/14 10:56:48;;;;;;;46.15;23.58;;;;;;;17.29;83.57;92690.69;5013816;28;20488;-78
2022/10/14 10:59:17;;;;;;;51.65;23.30;;;;;;;17.42;82.52;92683.59;4988239;28;20138;-77
2022/10/14 11:01:54;;;;;;;54.45;25.63;;;;;;;17.39;81.02;92678.97;5016332;28;20492;-78
2022/10/14 11:04:44;;;;;;;52.00;25.25;;;;;;;17.20;84.04;92682.84;5013842;28;20034;-78
2022/10/14 11:13:43;;;;;;;55.60;22.98;;;;;;;16.39;88.17;92668.78;5014715;28;20116;-78
2022/10/14 11:16:46;;;;;;;51.83;25.30;;;;;;;16.31;88.28;92671.47;5014467;28;20042;-78
2022/10/14 11:19:53;;;;;;;51.15;24.90;;;;;;;16.20;89.50;92663.88;5014195;28;20096;-78
2022/10/14 11:22:40;;;;;;;54.90;26.48;;;;;;;15.98;92.34;92667.50;5014356;28;20041;-77
2022/10/14 11:25:21;;;;;;;56.33;25.25;;;;;;;16.01;91.69;92666.88;5014026;28;20065;-77
2022/10/14 11:27:50;;;;;;;47.88;23.83;;;;;;;16.23;90.67;92662.47;5013965;28;20087;-77
2022/10/14 11:30:17;;;;;;;48.65;24.95;;;;;;;16.19;91.08;92656.28;5014216;28;20033;-77
2022/10/14 11:33:11;;;;;;;61.88;27.15;;;;;;;15.87;92.20;92653.09;5013988;28;20037;-77
2022/10/14 11:35:49;;;;;;;51.55;24.83;;;;;;;16.01;92.57;92655.56;5014085;28;20060;-78
2022/10/14 11:38:22;;;;;;;54.95;25.05;;;;;;;16.09;92.71;92660.03;5013364;28;20050;-77
2022/10/14 11:40:58;;;;;;;49.05;23.55;;;;;;;16.16;91.32;92646.31;5012161;28;20128;-78
2022/10/14 11:43:42;;;;;;;55.30;23.50;;;;;;;16.15;92.61;92640.28;5013683;28;20034;-77
2022/10/14 11:46:15;;;;;;;44.40;21.88;;;;;;;15.99;92.61;92642.66;5013509;28;20057;-77
2022/10/14 11:48:55;;;;;;;43.58;21.42;;;;;;;16.12;91.47;92633.00;5012108;28;20499;-77
2022/10/14 11:51:29;;;;;;;50.60;22.77;;;;;;;16.10;91.22;92631.75;5013720;28;20049;-77
2022/10/14 11:54:10;;;;;;;49.55;24.20;;;;;;;16.15;91.11;92627.06;5013375;28;20026;-77
2022/10/14 11:57:01;;;;;;;45.70;24.27;;;;;;;16.18;90.96;92623.78;5012245;28;20353;-77
2022/10/14 11:59:36;;;;;;;43.85;22.48;;;;;;;16.15;91.03;92623.66;5013154;28;20582;-77
2022/10/14 12:02:30;;;;;;;38.50;17.08;;;;;;;16.21;90.74;92619.75;5013681;28;20046;-77